Time;durP1;ratioP1;P1;durP2;ratioP2;P2;SDS_P1;SDS_P2;PMS_P1;PMS_P2;Temp;Humidity;BMP_temperature;BMP_pressure;BME280_temperature;BME280_humidity;BME280_pressure;Samples;Min_cycle;Max_cycle;Signal;HPM_P1;HPM_P2
2023/10/16 00:01:38;;;;;;;3.25;2.95;;;;;;;;;;5021649;28;20213;-71
2023/10/16 00:04:04;;;;;;;3.00;2.80;;;;;;;;;;5019909;28;20207;-71
2023/10/16 00:06:31;;;;;;;3.38;2.95;;;;;;;;;;5027615;28;20263;-71
2023/10/16 00:09:10;;;;;;;3.42;2.70;;;;;;;;;;5022219;28;20211;-71
2023/10/16 00:11:37;;;;;;;4.75;2.65;;;;;;;;;;5017908;28;20206;-71
2023/10/16 00:14:14;;;;;;;3.15;2.92;;;;;;;;;;5028054;28;20669;-71
2023/10/16 00:16:44;;;;;;;2.40;2.30;;;;;;;;;;5024314;28;20720;-71
2023/10/16 00:19:11;;;;;;;2.60;2.40;;;;;;;;;;5021857;28;20201;-70
2023/10/16 00:21:43;;;;;;;3.28;2.97;;;;;;;;;;5025592;28;20254;-70
2023/10/16 00:24:10;;;;;;;3.17;2.83;;;;;;;;;;5023552;28;20213;-70
2023/10/16 00:26:36;;;;;;;3.50;2.40;;;;;;;;;;5023936;28;20222;-70
2023/10/16 00:29:16;;;;;;;2.67;2.55;;;;;;;;;;5026355;28;20255;-71
2023/10/16 00:31:45;;;;;;;3.65;2.30;;;;;;;;;;5023870;28;20232;-71
2023/10/16 00:34:19;;;;;;;2.80;2.15;;;;;;;;;;5022944;28;20214;-71
2023/10/16 00:36:45;;;;;;;1.95;1.85;;;;;;;;;;5023256;28;20220;-71
2023/10/16 00:39:13;;;;;;;2.75;2.63;;;;;;;;;;5022972;28;20585;-71
2023/10/16 00:41:39;;;;;;;2.97;2.78;;;;;;;;;;5023850;28;20202;-71
2023/10/16 00:44:06;;;;;;;2.70;2.60;;;;;;;;;;5026381;28;20194;-71
2023/10/16 00:46:36;;;;;;;5.00;3.03;;;;;;;;;;5025451;28;20226;-71
2023/10/16 00:49:05;;;;;;;2.60;2.17;;;;;;;;;;5023071;28;20198;-71
2023/10/16 00:51:33;;;;;;;2.85;2.60;;;;;;;;;;5022497;28;20671;-71
2023/10/16 00:54:00;;;;;;;3.15;2.90;;;;;;;;;;5025619;28;20202;-71
2023/10/16 00:56:27;;;;;;;2.60;2.47;;;;;;;;;;5025655;28;20733;-71
2023/10/16 00:58:55;;;;;;;2.75;2.60;;;;;;;;;;5022380;28;20206;-71
2023/10/16 01:01:22;;;;;;;3.75;2.40;;;;;;;;;;5022159;28;20202;-71
2023/10/16 01:03:49;;;;;;;2.72;2.50;;;;;;;;;;5024875;28;20226;-71
2023/10/16 01:06:17;;;;;;;2.60;2.50;;;;;;;;;;5028152;28;20253;-71
2023/10/16 01:08:44;;;;;;;4.10;2.80;;;;;;;;;;5024073;28;20206;-71
2023/10/16 01:11:14;;;;;;;3.40;3.10;;;;;;;;;;5025609;28;20221;-71
2023/10/16 01:13:40;;;;;;;2.95;2.75;;;;;;;;;;5024228;28;20619;-71
2023/10/16 01:16:07;;;;;;;3.65;2.60;;;;;;;;;;5022191;28;20722;-71
2023/10/16 01:18:34;;;;;;;2.92;2.70;;;;;;;;;;5022426;28;20226;-71
2023/10/16 01:21:05;;;;;;;2.90;2.70;;;;;;;;;;5024590;28;20197;-71
2023/10/16 01:23:34;;;;;;;2.90;2.70;;;;;;;;;;5025516;28;20202;-71
2023/10/16 01:26:01;;;;;;;3.13;2.83;;;;;;;;;;5025525;28;20218;-71
2023/10/16 01:28:27;;;;;;;2.80;2.60;;;;;;;;;;5025392;28;20580;-71
2023/10/16 01:30:54;;;;;;;3.03;2.92;;;;;;;;;;5022313;28;20207;-71
2023/10/16 01:33:19;;;;;;;2.90;2.70;;;;;;;;;;5021886;28;20212;-71
2023/10/16 01:35:46;;;;;;;4.38;2.67;;;;;;;;;;5023386;28;20218;-71
2023/10/16 01:38:16;;;;;;;3.60;3.30;;;;;;;;;;5025174;28;20223;-71
2023/10/16 01:43:43;;;;;;;2.60;2.42;;;;;;;;;;5109749;27;20590;-71
2023/10/16 01:46:10;;;;;;;2.60;2.42;;;;;;;;;;5109374;28;20736;-71
2023/10/16 01:48:39;;;;;;;3.58;2.92;;;;;;;;;;5109497;28;20211;-71
2023/10/16 01:51:06;;;;;;;2.95;2.72;;;;;;;;;;5109139;28;20199;-71
2023/10/16 01:53:36;;;;;;;2.83;2.63;;;;;;;;;;5109750;28;20227;-71
2023/10/16 01:56:12;;;;;;;2.55;2.35;;;;;;;;;;5101102;28;20717;-71
2023/10/16 01:58:38;;;;;;;3.15;2.85;;;;;;;;;;5109539;28;20608;-71
2023/10/16 02:01:06;;;;;;;2.65;2.53;;;;;;;;;;5109028;28;20191;-71
2023/10/16 02:03:32;;;;;;;8.05;2.45;;;;;;;;;;5108958;28;20219;-71
2023/10/16 02:05:59;;;;;;;2.78;2.58;;;;;;;;;;5109215;28;20237;-71
2023/10/16 02:08:25;;;;;;;3.42;2.40;;;;;;;;;;5109417;28;20191;-71
2023/10/16 02:10:52;;;;;;;2.65;2.42;;;;;;;;;;5109481;28;20202;-71
2023/10/16 02:13:18;;;;;;;2.97;2.70;;;;;;;;;;5108932;28;20195;-71
2023/10/16 02:15:45;;;;;;;2.92;2.70;;;;;;;;;;5108839;28;20222;-71
2023/10/16 02:18:22;;;;;;;2.67;2.50;;;;;;;;;;5108814;28;20250;-71
2023/10/16 02:20:49;;;;;;;3.58;2.67;;;;;;;;;;5108759;28;20199;-71
2023/10/16 02:23:16;;;;;;;2.67;2.42;;;;;;;;;;5108897;28;20691;-71
2023/10/16 02:25:42;;;;;;;2.45;2.33;;;;;;;;;;5108891;28;20308;-72
2023/10/16 02:28:08;;;;;;;3.03;2.60;;;;;;;;;;5108788;28;20202;-70
2023/10/16 02:30:38;;;;;;;2.40;2.30;;;;;;;;;;5108563;28;20584;-70
2023/10/16 02:33:15;;;;;;;2.80;2.70;;;;;;;;;;5100495;28;20219;-70
2023/10/16 02:35:47;;;;;;;2.60;2.40;;;;;;;;;;5108418;28;20273;-70
2023/10/16 02:38:14;;;;;;;3.10;2.90;;;;;;;;;;5108558;28;20237;-70
2023/10/16 02:40:41;;;;;;;2.90;2.70;;;;;;;;;;5108308;28;20636;-70
2023/10/16 02:43:13;;;;;;;3.03;2.78;;;;;;;;;;5108218;28;20211;-70
2023/10/16 02:45:42;;;;;;;3.20;3.03;;;;;;;;;;5108463;28;20220;-70
2023/10/16 02:48:09;;;;;;;2.53;2.42;;;;;;;;;;5100447;28;20204;-70
2023/10/16 02:50:35;;;;;;;4.60;2.92;;;;;;;;;;5108212;28;20199;-70
2023/10/16 02:53:05;;;;;;;2.95;2.60;;;;;;;;;;5105921;28;20206;-70
2023/10/16 02:55:32;;;;;;;3.55;2.88;;;;;;;;;;5094416;28;20243;-70
2023/10/16 02:58:04;;;;;;;2.78;2.58;;;;;;;;;;5094570;28;20231;-70
2023/10/16 03:00:35;;;;;;;3.45;3.13;;;;;;;;;;5094581;28;20257;-70
2023/10/16 03:03:05;;;;;;;2.97;2.80;;;;;;;;;;5094337;28;20219;-70
2023/10/16 03:05:31;;;;;;;3.25;2.72;;;;;;;;;;5094449;28;20226;-70
2023/10/16 03:07:58;;;;;;;2.67;2.58;;;;;;;;;;5094923;28;20207;-70
2023/10/16 03:10:26;;;;;;;5.60;2.60;;;;;;;;;;5094572;28;20676;-70
2023/10/16 03:12:52;;;;;;;2.90;2.70;;;;;;;;;;5095069;28;20206;-70
2023/10/16 03:15:20;;;;;;;2.90;2.65;;;;;;;;;;5099428;28;20591;-71
2023/10/16 03:17:50;;;;;;;2.80;2.60;;;;;;;;;;5103880;28;20210;-70
2023/10/16 03:20:20;;;;;;;3.55;2.55;;;;;;;;;;5101394;28;20199;-70
2023/10/16 03:22:47;;;;;;;4.68;3.28;;;;;;;;;;5096216;28;20219;-70
2023/10/16 03:25:24;;;;;;;3.80;2.97;;;;;;;;;;5094223;28;20231;-70
2023/10/16 03:27:55;;;;;;;3.10;2.90;;;;;;;;;;5094071;28;20195;-70
2023/10/16 03:30:21;;;;;;;4.53;3.13;;;;;;;;;;5093755;28;20192;-70
2023/10/16 03:32:48;;;;;;;3.58;3.00;;;;;;;;;;5093774;28;20199;-70
2023/10/16 03:35:20;;;;;;;3.38;3.05;;;;;;;;;;5093776;28;20238;-70
2023/10/16 03:37:49;;;;;;;3.28;3.08;;;;;;;;;;5093852;28;20245;-70
2023/10/16 03:40:19;;;;;;;3.00;2.63;;;;;;;;;;5093671;28;20214;-70
2023/10/16 03:42:45;;;;;;;7.07;2.78;;;;;;;;;;5093734;28;20215;-70
2023/10/16 03:45:14;;;;;;;3.28;3.00;;;;;;;;;;5085395;28;20203;-70
2023/10/16 03:47:41;;;;;;;3.90;3.15;;;;;;;;;;5093561;28;20207;-70
2023/10/16 03:50:08;;;;;;;3.58;3.05;;;;;;;;;;5093316;28;20199;-70
2023/10/16 03:52:35;;;;;;;3.22;3.03;;;;;;;;;;5093515;28;20206;-70
2023/10/16 03:55:20;;;;;;;4.72;2.90;;;;;;;;;;5093239;28;20231;-70
2023/10/16 03:57:46;;;;;;;6.15;2.97;;;;;;;;;;5093204;28;20206;-70
2023/10/16 04:00:16;;;;;;;3.55;3.25;;;;;;;;;;5084855;28;20192;-70
2023/10/16 04:02:44;;;;;;;2.78;2.63;;;;;;;;;;5093171;28;20216;-70
2023/10/16 04:05:29;;;;;;;3.17;2.97;;;;;;;;;;5092187;28;20196;-70
2023/10/16 04:07:56;;;;;;;2.92;2.72;;;;;;;;;;5092747;28;20245;-71
2023/10/16 04:10:28;;;;;;;3.33;3.10;;;;;;;;;;5092746;28;20313;-70
2023/10/16 04:12:54;;;;;;;3.50;2.97;;;;;;;;;;5092573;28;20200;-70
2023/10/16 04:15:37;;;;;;;3.22;2.97;;;;;;;;;;5092947;28;20219;-70
2023/10/16 04:18:04;;;;;;;3.63;3.30;;;;;;;;;;5092751;28;20196;-70
2023/10/16 04:20:43;;;;;;;3.35;3.15;;;;;;;;;;5092088;28;20253;-70
2023/10/16 04:23:29;;;;;;;4.40;3.28;;;;;;;;;;5092809;28;20637;-70
2023/10/16 04:26:28;;;;;;;3.10;2.90;;;;;;;;;;5092560;28;20215;-69
2023/10/16 04:31:44;;;;;;;3.90;3.65;;;;;;;;;;5077566;28;20195;-70
2023/10/16 04:34:24;;;;;;;3.47;3.28;;;;;;;;;;5092518;28;20237;-70
2023/10/16 04:36:52;;;;;;;3.47;3.28;;;;;;;;;;5092638;28;20219;-70
2023/10/16 04:40:28;;;;;;;3.78;2.85;;;;;;;;;;5084352;28;20668;-70
2023/10/16 04:45:00;;;;;;;4.40;3.65;;;;;;;;;;5092599;28;20318;-70
2023/10/16 04:47:28;;;;;;;3.58;3.03;;;;;;;;;;5092429;28;20199;-70
2023/10/16 04:50:07;;;;;;;3.42;2.97;;;;;;;;;;5092116;28;20215;-70
2023/10/16 04:55:23;;;;;;;3.95;3.47;;;;;;;;;;5082831;28;20199;-70
2023/10/16 04:57:53;;;;;;;3.47;3.28;;;;;;;;;;5092245;28;20249;-70
2023/10/16 05:00:54;;;;;;;3.83;3.15;;;;;;;;;;5083849;28;20191;-70
2023/10/16 05:03:23;;;;;;;3.60;3.33;;;;;;;;;;5091815;28;20291;-70
2023/10/16 05:06:03;;;;;;;4.35;3.58;;;;;;;;;;5091933;28;20660;-70
2023/10/16 05:08:38;;;;;;;3.42;3.22;;;;;;;;;;5085373;28;20207;-70
2023/10/16 05:11:27;;;;;;;4.18;3.63;;;;;;;;;;5091789;28;20679;-70
2023/10/16 05:13:55;;;;;;;4.32;3.53;;;;;;;;;;5092248;28;20236;-70
2023/10/16 05:16:38;;;;;;;5.22;3.83;;;;;;;;;;5083754;28;20241;-70
2023/10/16 05:19:17;;;;;;;3.72;2.88;;;;;;;;;;5091811;28;20207;-70
2023/10/16 06:14:11;;;;;;;4.03;3.50;;;;;;;;;;5085664;28;20222;-60
2023/10/16 06:16:38;;;;;;;5.35;3.30;;;;;;;;;;5077464;28;20276;-61
2023/10/16 06:19:07;;;;;;;3.83;3.13;;;;;;;;;;5081759;28;20211;-62
2023/10/16 06:21:33;;;;;;;5.45;3.67;;;;;;;;;;5083147;28;20212;-61
2023/10/16 06:24:17;;;;;;;5.95;3.70;;;;;;;;;;5083296;28;20230;-60
2023/10/16 06:26:46;;;;;;;4.70;3.50;;;;;;;;;;5083324;28;20230;-60
2023/10/16 06:29:12;;;;;;;5.93;3.50;;;;;;;;;;5084932;28;20265;-59
2023/10/16 06:31:49;;;;;;;3.47;3.15;;;;;;;;;;5087291;28;20216;-59
2023/10/16 06:34:15;;;;;;;4.97;3.70;;;;;;;;;;5087177;28;20745;-60
2023/10/16 06:36:43;;;;;;;4.88;3.42;;;;;;;;;;5086612;28;20285;-61
2023/10/16 06:39:22;;;;;;;7.80;3.70;;;;;;;;;;5086779;28;20203;-61
2023/10/16 06:41:49;;;;;;;4.53;3.58;;;;;;;;;;5084393;28;20294;-62
2023/10/16 06:44:16;;;;;;;5.88;3.25;;;;;;;;;;5087338;28;20730;-60
2023/10/16 06:46:43;;;;;;;4.80;3.92;;;;;;;;;;5086731;28;20228;-61
2023/10/16 06:49:11;;;;;;;4.15;3.65;;;;;;;;;;5086878;28;20218;-60
2023/10/16 06:51:43;;;;;;;5.47;3.50;;;;;;;;;;5086828;28;20214;-61
2023/10/16 06:54:10;;;;;;;4.95;4.07;;;;;;;;;;5086637;28;20203;-61
2023/10/16 06:56:38;;;;;;;9.50;4.63;;;;;;;;;;5086528;28;20584;-61
2023/10/16 06:59:05;;;;;;;11.48;5.25;;;;;;;;;;5086559;28;20275;-60
2023/10/16 07:01:34;;;;;;;7.47;4.50;;;;;;;;;;5085926;28;20248;-61
2023/10/16 07:04:01;;;;;;;4.30;3.47;;;;;;;;;;5086006;28;20242;-60
2023/10/16 07:06:32;;;;;;;3.90;3.60;;;;;;;;;;5086753;28;20269;-60
2023/10/16 07:09:00;;;;;;;4.53;3.97;;;;;;;;;;5086533;28;20632;-61
2023/10/16 07:11:27;;;;;;;5.10;3.72;;;;;;;;;;5086586;28;20226;-61
2023/10/16 07:13:54;;;;;;;7.15;3.88;;;;;;;;;;5087438;28;20216;-61
2023/10/16 07:16:21;;;;;;;5.85;3.35;;;;;;;;;;5086521;28;20223;-61
2023/10/16 07:18:53;;;;;;;5.68;3.55;;;;;;;;;;5086435;28;20208;-61
2023/10/16 07:21:20;;;;;;;7.30;3.70;;;;;;;;;;5085564;28;21026;-61
2023/10/16 07:23:46;;;;;;;5.70;3.80;;;;;;;;;;5086404;28;20229;-59
2023/10/16 07:26:16;;;;;;;5.68;4.03;;;;;;;;;;5086136;28;20223;-59
2023/10/16 07:28:48;;;;;;;8.35;3.72;;;;;;;;;;5086065;28;20203;-62
2023/10/16 07:31:16;;;;;;;8.02;4.05;;;;;;;;;;5086071;28;20694;-61
2023/10/16 07:33:45;;;;;;;11.00;4.05;;;;;;;;;;5086430;28;20261;-61
2023/10/16 07:36:14;;;;;;;5.47;3.95;;;;;;;;;;5086229;28;20276;-61
2023/10/16 07:38:41;;;;;;;8.55;3.60;;;;;;;;;;5086645;28;20703;-61
2023/10/16 07:41:12;;;;;;;4.53;4.15;;;;;;;;;;5085024;28;20566;-62
2023/10/16 07:43:39;;;;;;;5.15;3.88;;;;;;;;;;5078852;28;20300;-61
2023/10/16 07:46:27;;;;;;;7.15;4.18;;;;;;;;;;5086194;28;20235;-61
2023/10/16 07:48:55;;;;;;;6.63;4.30;;;;;;;;;;5084344;28;20207;-61
2023/10/16 07:51:22;;;;;;;5.63;3.88;;;;;;;;;;5085211;28;20605;-60
2023/10/16 07:53:49;;;;;;;5.30;4.25;;;;;;;;;;5086186;28;20200;-61
2023/10/16 07:56:25;;;;;;;5.30;4.03;;;;;;;;;;5086016;28;20251;-61
2023/10/16 07:58:54;;;;;;;4.38;3.97;;;;;;;;;;5086019;28;20300;-61
2023/10/16 08:01:36;;;;;;;3.83;3.53;;;;;;;;;;5085796;28;20243;-61
2023/10/16 08:04:05;;;;;;;3.75;3.55;;;;;;;;;;5085457;28;21080;-63
2023/10/16 08:06:32;;;;;;;4.35;3.55;;;;;;;;;;5085200;28;20255;-60
2023/10/16 08:11:42;;;;;;;7.45;4.07;;;;;;;;;;5075292;28;20199;-62
2023/10/16 08:14:08;;;;;;;4.65;4.25;;;;;;;;;;5083682;28;20606;-62
2023/10/16 08:16:35;;;;;;;4.85;4.18;;;;;;;;;;5083250;28;20220;-62
2023/10/16 08:19:01;;;;;;;4.20;3.70;;;;;;;;;;5083593;28;20215;-61
2023/10/16 08:21:29;;;;;;;6.93;3.70;;;;;;;;;;5083884;28;20211;-62
2023/10/16 08:23:56;;;;;;;4.22;3.78;;;;;;;;;;5083855;28;20211;-62
2023/10/16 08:26:29;;;;;;;7.72;4.45;;;;;;;;;;5084009;28;20726;-62
2023/10/16 08:28:56;;;;;;;5.80;4.03;;;;;;;;;;5082953;28;20214;-62
2023/10/16 08:31:25;;;;;;;5.32;3.97;;;;;;;;;;5083368;28;20261;-62
2023/10/16 08:33:51;;;;;;;3.50;3.15;;;;;;;;;;5083682;28;20262;-61
2023/10/16 08:36:19;;;;;;;3.78;3.50;;;;;;;;;;5083611;28;20220;-60
2023/10/16 08:38:52;;;;;;;5.57;3.70;;;;;;;;;;5083813;28;20204;-61
2023/10/16 08:41:29;;;;;;;4.22;3.92;;;;;;;;;;5082448;28;20639;-61
2023/10/16 08:44:03;;;;;;;8.77;3.83;;;;;;;;;;5083608;28;20226;-61
2023/10/16 08:46:34;;;;;;;10.63;3.63;;;;;;;;;;5083539;28;20337;-61
2023/10/16 08:49:02;;;;;;;5.20;4.22;;;;;;;;;;5083342;28;20211;-61
2023/10/16 08:51:29;;;;;;;4.93;3.70;;;;;;;;;;5082981;28;20364;-61
2023/10/16 08:54:02;;;;;;;4.10;3.58;;;;;;;;;;5083380;28;20274;-61
2023/10/16 08:56:28;;;;;;;5.20;4.05;;;;;;;;;;5082741;28;20234;-60
2023/10/16 08:58:56;;;;;;;4.03;3.50;;;;;;;;;;5082705;28;20216;-63
2023/10/16 09:01:23;;;;;;;5.68;4.05;;;;;;;;;;5083304;28;20210;-62
2023/10/16 09:03:54;;;;;;;6.45;4.18;;;;;;;;;;5078365;28;21269;-63
2023/10/16 09:06:22;;;;;;;4.30;3.38;;;;;;;;;;5083072;28;20219;-62
2023/10/16 09:08:48;;;;;;;4.22;3.83;;;;;;;;;;5082942;28;20204;-62
2023/10/16 09:11:16;;;;;;;7.72;4.40;;;;;;;;;;5082942;28;20208;-63
2023/10/16 09:13:47;;;;;;;5.95;3.70;;;;;;;;;;5083717;28;20283;-58
2023/10/16 09:16:13;;;;;;;4.10;3.75;;;;;;;;;;5083447;28;20754;-60
2023/10/16 09:18:40;;;;;;;4.22;3.83;;;;;;;;;;5082728;28;20200;-65
2023/10/16 09:21:13;;;;;;;3.70;3.40;;;;;;;;;;5083119;28;20207;-63
2023/10/16 09:23:40;;;;;;;5.13;3.70;;;;;;;;;;5083053;28;20224;-63
2023/10/16 09:26:06;;;;;;;5.80;3.80;;;;;;;;;;5082760;28;20215;-61
2023/10/16 09:28:35;;;;;;;4.00;3.70;;;;;;;;;;5081791;28;20246;-62
2023/10/16 09:31:06;;;;;;;4.65;3.65;;;;;;;;;;5082071;28;20276;-63
2023/10/16 09:33:34;;;;;;;4.13;3.72;;;;;;;;;;5082314;28;20211;-62
2023/10/16 09:36:17;;;;;;;7.53;3.97;;;;;;;;;;5082610;28;20687;-59
2023/10/16 09:38:43;;;;;;;4.90;3.97;;;;;;;;;;5082155;28;20211;-60
2023/10/16 09:44:07;;;;;;;3.92;3.72;;;;;;;;;;5081230;28;20226;-61
2023/10/16 09:46:52;;;;;;;4.15;3.55;;;;;;;;;;5082478;28;20710;-62
2023/10/16 09:49:21;;;;;;;3.58;3.38;;;;;;;;;;5082713;28;20207;-64
2023/10/16 09:51:47;;;;;;;3.50;3.30;;;;;;;;;;5081854;28;20313;-62
2023/10/16 09:54:14;;;;;;;3.78;3.42;;;;;;;;;;5082609;28;20290;-62
2023/10/16 09:56:44;;;;;;;4.18;3.33;;;;;;;;;;5082439;28;20219;-62
2023/10/16 09:59:17;;;;;;;5.30;3.00;;;;;;;;;;5082054;28;20207;-61
2023/10/16 10:01:43;;;;;;;3.28;2.95;;;;;;;;;;5078585;28;20302;-61
2023/10/16 10:04:11;;;;;;;4.07;3.20;;;;;;;;;;5084512;28;20223;-63
2023/10/16 10:06:39;;;;;;;3.20;2.92;;;;;;;;;;5086223;28;20219;-63
2023/10/16 10:09:22;;;;;;;4.90;3.08;;;;;;;;;;5086355;28;20210;-63
2023/10/16 10:12:03;;;;;;;7.13;3.35;;;;;;;;;;5085864;28;20206;-63
2023/10/16 10:14:39;;;;;;;4.28;3.08;;;;;;;;;;5087012;28;20203;-63
2023/10/16 10:17:09;;;;;;;4.28;3.00;;;;;;;;;;5086507;28;20223;-64
2023/10/16 10:19:39;;;;;;;5.18;2.40;;;;;;;;;;5086108;28;20212;-63
2023/10/16 10:22:15;;;;;;;2.10;1.73;;;;;;;;;;5085680;28;20635;-64
2023/10/16 10:24:45;;;;;;;3.65;1.95;;;;;;;;;;5086138;28;20308;-64
2023/10/16 10:27:11;;;;;;;1.15;1.15;;;;;;;;;;5085479;28;20224;-64
2023/10/16 10:29:44;;;;;;;1.00;0.90;;;;;;;;;;5085608;28;20211;-64
2023/10/16 10:32:12;;;;;;;2.30;1.10;;;;;;;;;;5085625;28;20200;-65
2023/10/16 10:34:38;;;;;;;1.55;0.80;;;;;;;;;;5086380;28;20200;-65
2023/10/16 10:37:36;;;;;;;1.13;1.10;;;;;;;;;;5085505;28;20220;-64
2023/10/16 10:40:14;;;;;;;1.02;0.70;;;;;;;;;;5079552;28;20227;-64
2023/10/16 10:42:41;;;;;;;1.55;0.70;;;;;;;;;;5085753;28;20659;-64
2023/10/16 10:45:21;;;;;;;0.80;0.80;;;;;;;;;;5086176;28;20230;-64
2023/10/16 10:47:48;;;;;;;1.30;1.30;;;;;;;;;;5085624;28;20203;-64
2023/10/16 10:50:14;;;;;;;1.75;1.33;;;;;;;;;;5085922;28;20203;-63
2023/10/16 10:52:41;;;;;;;2.17;1.98;;;;;;;;;;5085934;28;20204;-64
2023/10/16 10:55:18;;;;;;;4.88;1.45;;;;;;;;;;5085723;28;20679;-64
2023/10/16 10:57:47;;;;;;;1.73;1.25;;;;;;;;;;5085495;28;20218;-64
2023/10/16 11:00:43;;;;;;;2.20;1.40;;;;;;;;;;5081529;28;20404;-62
2023/10/16 11:03:10;;;;;;;1.88;1.10;;;;;;;;;;5085953;28;20204;-61
2023/10/16 11:05:42;;;;;;;1.85;1.15;;;;;;;;;;5086153;28;20234;-62
2023/10/16 11:08:29;;;;;;;1.50;1.40;;;;;;;;;;5086827;28;20644;-62
2023/10/16 11:10:56;;;;;;;1.10;1.00;;;;;;;;;;5084231;28;20204;-62
2023/10/16 11:13:22;;;;;;;1.17;1.08;;;;;;;;;;5086746;28;20212;-62
2023/10/16 11:15:52;;;;;;;1.33;1.13;;;;;;;;;;5085812;28;20358;-63
2023/10/16 11:18:19;;;;;;;1.08;1.00;;;;;;;;;;5086557;28;20703;-62
2023/10/16 11:20:46;;;;;;;2.67;1.30;;;;;;;;;;5085646;28;20635;-63
2023/10/16 11:23:13;;;;;;;1.02;0.95;;;;;;;;;;5086169;28;20684;-64
2023/10/16 11:25:43;;;;;;;1.23;1.10;;;;;;;;;;5085757;28;20220;-63
2023/10/16 11:28:10;;;;;;;2.30;1.58;;;;;;;;;;5086225;28;20231;-62
2023/10/16 11:30:38;;;;;;;1.92;1.02;;;;;;;;;;5085955;28;20410;-61
2023/10/16 11:33:09;;;;;;;1.08;0.93;;;;;;;;;;5085870;28;20298;-61
2023/10/16 11:35:35;;;;;;;1.20;0.98;;;;;;;;;;5083516;28;20212;-63
2023/10/16 11:38:12;;;;;;;1.15;0.80;;;;;;;;;;5086149;28;20295;-64
2023/10/16 11:40:42;;;;;;;2.05;0.93;;;;;;;;;;5083005;28;20207;-62
2023/10/16 11:43:11;;;;;;;1.20;1.20;;;;;;;;;;5085883;28;20208;-63
2023/10/16 11:45:39;;;;;;;1.17;1.10;;;;;;;;;;5085021;28;20491;-64
2023/10/16 11:48:25;;;;;;;1.65;1.00;;;;;;;;;;5086066;28;20208;-63
2023/10/16 11:50:51;;;;;;;1.00;1.00;;;;;;;;;;5085443;28;20265;-64
2023/10/16 11:53:23;;;;;;;0.70;0.70;;;;;;;;;;5086437;28;20243;-63
2023/10/16 11:55:50;;;;;;;3.40;1.10;;;;;;;;;;5085822;28;20723;-64
2023/10/16 11:58:16;;;;;;;1.05;1.05;;;;;;;;;;5085953;28;20208;-64
2023/10/16 12:00:53;;;;;;;2.17;1.30;;;;;;;;;;5085715;28;20425;-62
2023/10/16 12:03:23;;;;;;;1.13;0.80;;;;;;;;;;5085778;28;20203;-63
2023/10/16 12:05:50;;;;;;;1.35;1.00;;;;;;;;;;5085738;28;20235;-63
2023/10/16 12:08:18;;;;;;;2.22;1.00;;;;;;;;;;5086128;28;20214;-63
2023/10/16 12:10:46;;;;;;;1.48;0.60;;;;;;;;;;5086034;28;20261;-62
2023/10/16 12:13:13;;;;;;;1.45;0.80;;;;;;;;;;5086043;28;20225;-63
2023/10/16 12:15:40;;;;;;;0.82;0.80;;;;;;;;;;5085568;28;20588;-62
2023/10/16 12:18:09;;;;;;;0.70;0.68;;;;;;;;;;5085752;28;20203;-63
2023/10/16 12:20:37;;;;;;;1.27;0.60;;;;;;;;;;5085280;28;20291;-64
2023/10/16 12:23:04;;;;;;;1.02;0.82;;;;;;;;;;5085386;28;20257;-62
2023/10/16 12:25:30;;;;;;;1.92;0.75;;;;;;;;;;5085943;28;20228;-62
2023/10/16 12:27:56;;;;;;;0.90;0.90;;;;;;;;;;5084776;28;20207;-61
2023/10/16 12:30:23;;;;;;;1.60;0.90;;;;;;;;;;5085788;28;20441;-61
2023/10/16 12:32:49;;;;;;;1.25;0.93;;;;;;;;;;5084864;28;20671;-63
2023/10/16 12:35:18;;;;;;;0.95;0.70;;;;;;;;;;5085663;28;20231;-63
2023/10/16 12:37:46;;;;;;;1.23;0.80;;;;;;;;;;5085850;28;20219;-62
2023/10/16 12:40:27;;;;;;;0.98;0.63;;;;;;;;;;5085031;28;20204;-62
2023/10/16 12:42:53;;;;;;;0.63;0.63;;;;;;;;;;5085211;28;20211;-62
2023/10/16 12:45:19;;;;;;;0.60;0.60;;;;;;;;;;5085324;28;20571;-62
2023/10/16 12:47:46;;;;;;;0.60;0.60;;;;;;;;;;5085380;28;20210;-63
2023/10/16 12:50:12;;;;;;;1.75;0.95;;;;;;;;;;5085869;28;20203;-63
2023/10/16 12:52:39;;;;;;;2.00;1.20;;;;;;;;;;5085059;28;20234;-61
2023/10/16 12:55:09;;;;;;;2.00;0.73;;;;;;;;;;5085683;28;20191;-61
2023/10/16 12:57:35;;;;;;;0.98;0.77;;;;;;;;;;5085188;28;20207;-62
2023/10/16 13:00:13;;;;;;;1.75;0.57;;;;;;;;;;5084459;28;20199;-62
2023/10/16 13:02:42;;;;;;;1.08;0.68;;;;;;;;;;5085074;28;20207;-63
2023/10/16 13:05:13;;;;;;;1.75;0.68;;;;;;;;;;5085210;28;20534;-62
2023/10/16 13:07:40;;;;;;;0.82;0.68;;;;;;;;;;5085115;28;20215;-62
2023/10/16 13:10:09;;;;;;;0.60;0.60;;;;;;;;;;5080822;28;20284;-62
2023/10/16 13:12:36;;;;;;;2.13;0.80;;;;;;;;;;5084695;28;20239;-62
2023/10/16 13:15:03;;;;;;;1.25;0.77;;;;;;;;;;5085585;28;20261;-62
2023/10/16 13:17:30;;;;;;;0.80;0.80;;;;;;;;;;5084967;28;20216;-62
2023/10/16 13:19:56;;;;;;;1.25;0.60;;;;;;;;;;5085008;28;20253;-62
2023/10/16 13:22:22;;;;;;;1.65;0.77;;;;;;;;;;5087468;28;20207;-62
2023/10/16 13:24:49;;;;;;;0.65;0.60;;;;;;;;;;5088400;28;20232;-62
2023/10/16 13:27:19;;;;;;;0.30;0.30;;;;;;;;;;5087297;28;20219;-62
2023/10/16 13:29:46;;;;;;;1.65;0.50;;;;;;;;;;5084130;28;20261;-62
2023/10/16 13:32:12;;;;;;;0.80;0.52;;;;;;;;;;5084683;28;20204;-62
2023/10/16 13:34:39;;;;;;;0.32;0.32;;;;;;;;;;5084271;28;20612;-62
2023/10/16 13:37:08;;;;;;;0.50;0.50;;;;;;;;;;5084257;28;20231;-62
2023/10/16 13:39:38;;;;;;;1.52;0.50;;;;;;;;;;5084626;28;20212;-62
2023/10/16 13:42:08;;;;;;;0.40;0.40;;;;;;;;;;5083568;28;20446;-62
2023/10/16 13:44:36;;;;;;;0.75;0.40;;;;;;;;;;5084777;28;20211;-62
2023/10/16 13:47:05;;;;;;;0.50;0.50;;;;;;;;;;5084677;28;20220;-62
2023/10/16 13:49:31;;;;;;;2.17;0.68;;;;;;;;;;5083961;28;20212;-62
2023/10/16 13:51:58;;;;;;;1.13;0.50;;;;;;;;;;5084157;28;20549;-62
2023/10/16 13:54:24;;;;;;;0.73;0.40;;;;;;;;;;5084658;28;20579;-62
2023/10/16 13:56:50;;;;;;;0.73;0.60;;;;;;;;;;5084150;28;20226;-62
2023/10/16 13:59:18;;;;;;;0.70;0.70;;;;;;;;;;5084345;28;20207;-63
2023/10/16 14:01:46;;;;;;;0.80;0.55;;;;;;;;;;5084004;28;20211;-63
2023/10/16 14:04:14;;;;;;;0.60;0.60;;;;;;;;;;5079308;28;20253;-63
2023/10/16 14:06:41;;;;;;;0.50;0.50;;;;;;;;;;5084152;28;20306;-62
2023/10/16 14:09:11;;;;;;;0.63;0.63;;;;;;;;;;5084355;28;20502;-61
2023/10/16 14:11:47;;;;;;;1.20;1.10;;;;;;;;;;5083883;28;20219;-62
2023/10/16 14:14:18;;;;;;;0.98;0.80;;;;;;;;;;5077142;28;20548;-62
2023/10/16 14:16:46;;;;;;;1.02;0.68;;;;;;;;;;5084057;28;20224;-62
2023/10/16 14:19:14;;;;;;;0.70;0.70;;;;;;;;;;5079441;28;20218;-62
2023/10/16 14:21:40;;;;;;;1.38;0.82;;;;;;;;;;5084092;28;20215;-62
2023/10/16 14:24:07;;;;;;;0.75;0.50;;;;;;;;;;5084399;28;20381;-62
2023/10/16 14:26:34;;;;;;;0.95;0.60;;;;;;;;;;5084061;28;20223;-62
2023/10/16 14:29:00;;;;;;;1.00;0.90;;;;;;;;;;5083664;28;20209;-62
2023/10/16 14:31:28;;;;;;;1.42;0.90;;;;;;;;;;5084042;28;20401;-62
2023/10/16 14:33:58;;;;;;;0.75;0.60;;;;;;;;;;5081589;28;20235;-62
2023/10/16 14:36:26;;;;;;;0.70;0.70;;;;;;;;;;5082030;28;20305;-62
2023/10/16 14:38:54;;;;;;;1.05;0.80;;;;;;;;;;5082387;28;20214;-62
2023/10/16 14:41:23;;;;;;;1.58;0.93;;;;;;;;;;5081931;28;20203;-62
2023/10/16 14:43:50;;;;;;;1.33;1.00;;;;;;;;;;5082260;28;20272;-62
2023/10/16 14:46:17;;;;;;;0.82;0.70;;;;;;;;;;5081989;28;20215;-62
2023/10/16 14:48:43;;;;;;;0.63;0.63;;;;;;;;;;5081963;28;20680;-64
2023/10/16 14:51:12;;;;;;;1.33;0.80;;;;;;;;;;5084845;28;20207;-63
2023/10/16 14:53:39;;;;;;;3.45;0.80;;;;;;;;;;5085905;28;20715;-62
2023/10/16 14:56:06;;;;;;;0.60;0.60;;;;;;;;;;5085294;28;20264;-63
2023/10/16 14:58:34;;;;;;;1.20;0.73;;;;;;;;;;5085334;28;20613;-62
2023/10/16 15:01:09;;;;;;;0.90;0.90;;;;;;;;;;5084639;28;20207;-62
2023/10/16 15:03:38;;;;;;;1.40;0.75;;;;;;;;;;5085639;28;20300;-62
2023/10/16 15:06:04;;;;;;;1.63;0.80;;;;;;;;;;5085138;28;20228;-62
2023/10/16 15:08:32;;;;;;;0.82;0.82;;;;;;;;;;5085892;28;20745;-63
2023/10/16 15:10:59;;;;;;;0.60;0.60;;;;;;;;;;5085273;28;20215;-64
2023/10/16 15:13:27;;;;;;;0.95;0.68;;;;;;;;;;5084763;28;20598;-61
2023/10/16 15:15:55;;;;;;;1.65;1.17;;;;;;;;;;5084894;28;20220;-62
2023/10/16 15:18:22;;;;;;;0.82;0.80;;;;;;;;;;5085320;28;20274;-62
2023/10/16 15:20:48;;;;;;;0.98;0.82;;;;;;;;;;5084703;28;20239;-62
2023/10/16 15:23:14;;;;;;;1.42;0.73;;;;;;;;;;5085796;28;20204;-61
2023/10/16 15:25:43;;;;;;;1.30;0.70;;;;;;;;;;5085478;28;20220;-64
2023/10/16 15:28:10;;;;;;;1.85;0.80;;;;;;;;;;5085239;28;20594;-63
2023/10/16 15:30:38;;;;;;;2.35;0.85;;;;;;;;;;5085615;28;20200;-64
2023/10/16 15:33:06;;;;;;;1.90;0.93;;;;;;;;;;5085009;28;20259;-60
2023/10/16 15:35:32;;;;;;;0.75;0.75;;;;;;;;;;5085515;28;20227;-64
2023/10/16 15:37:59;;;;;;;1.10;1.10;;;;;;;;;;5084901;28;20226;-63
2023/10/16 15:40:26;;;;;;;0.80;0.80;;;;;;;;;;5084295;28;20204;-61
2023/10/16 15:42:57;;;;;;;0.80;0.80;;;;;;;;;;5084890;28;20623;-62
2023/10/16 15:45:25;;;;;;;1.77;0.95;;;;;;;;;;5074024;28;20495;-62
2023/10/16 15:47:51;;;;;;;1.17;1.08;;;;;;;;;;5085121;28;20207;-63
2023/10/16 15:50:18;;;;;;;1.73;1.40;;;;;;;;;;5084648;28;20200;-63
2023/10/16 15:52:44;;;;;;;0.82;0.82;;;;;;;;;;5085084;28;20203;-62
2023/10/16 15:55:17;;;;;;;0.98;0.98;;;;;;;;;;5084842;28;20583;-63
2023/10/16 15:57:46;;;;;;;1.42;1.20;;;;;;;;;;5084412;28;20234;-61
2023/10/16 16:00:15;;;;;;;1.95;0.90;;;;;;;;;;5084641;28;20474;-61
2023/10/16 16:02:42;;;;;;;2.53;1.05;;;;;;;;;;5085017;28;20211;-62
2023/10/16 16:05:09;;;;;;;1.00;1.00;;;;;;;;;;5084342;28;20207;-61
2023/10/16 16:07:35;;;;;;;1.20;1.10;;;;;;;;;;5084263;28;20273;-59